Terminal Aerodrome Forecast
Issued by NWS Twin Cities, MN

Home | Current Version | Previous Version | Graphics & Text | Print | Product List | Glossary On
Versions: 1 2 3 4 5 6 7 8 9 10 11 12 13 14 15 16 17 18 19
000
FTUS43 KMPX 211136
TAFEAU
TAF
KEAU 211136Z 2112/2212 10008KT P6SM VCSH BKN050 OVC100
     FM211500 14007KT P6SM BKN120 OVC250
     FM212100 21007KT P6SM SCT040 BKN250
     FM220300 VRB03KT P6SM BKN250=

USA.gov is the U.S. government's official web portal to all federal, state and local government web resources and services.